createdAt,value
2017-05-15T00:00:16.021Z,0
2017-05-15T00:01:27.031Z,0
2017-05-15T00:02:38.235Z,0
2017-05-15T00:03:49.457Z,0
2017-05-15T00:05:00.929Z,0
2017-05-15T00:06:12.131Z,0
2017-05-15T00:07:23.129Z,0
2017-05-15T00:08:34.349Z,0
2017-05-15T00:09:45.359Z,0
2017-05-15T00:10:56.570Z,0
2017-05-15T00:12:07.622Z,0
2017-05-15T00:13:18.822Z,0
2017-05-15T00:14:29.878Z,0
2017-05-15T00:15:40.880Z,0
2017-05-15T00:16:51.885Z,0
2017-05-15T00:18:02.892Z,0
2017-05-15T00:19:13.918Z,0
2017-05-15T00:20:24.926Z,0
2017-05-15T00:21:35.912Z,0
2017-05-15T00:22:46.920Z,0
2017-05-15T00:23:57.937Z,0
2017-05-15T00:25:08.992Z,0
2017-05-15T00:26:20.006Z,0
2017-05-15T00:27:31.025Z,0
2017-05-15T00:28:42.019Z,0
2017-05-15T00:29:53.030Z,0
2017-05-15T00:31:04.040Z,0
2017-05-15T00:32:15.045Z,0
2017-05-15T00:33:26.049Z,0
2017-05-15T00:34:37.274Z,0
2017-05-15T00:35:48.337Z,0
2017-05-15T00:36:59.346Z,0
2017-05-15T00:38:10.752Z,0
2017-05-15T00:39:21.765Z,0
2017-05-15T00:40:32.784Z,0
2017-05-15T00:41:43.786Z,0
2017-05-15T00:42:54.842Z,0
2017-05-15T00:44:05.854Z,0
2017-05-15T00:45:16.917Z,0
2017-05-15T00:46:27.933Z,0
2017-05-15T00:47:38.948Z,0
2017-05-15T00:48:49.962Z,0
2017-05-15T00:50:00.975Z,0
2017-05-15T00:51:11.991Z,0
2017-05-15T00:52:22.994Z,0
2017-05-15T00:53:34.000Z,0
2017-05-15T00:54:45.024Z,0
2017-05-15T00:55:56.082Z,0
2017-05-15T00:57:07.090Z,0
2017-05-15T00:58:18.100Z,0
2017-05-15T00:59:29.106Z,0
2017-05-15T01:00:40.114Z,0
2017-05-15T01:01:51.126Z,0
2017-05-15T01:03:02.156Z,0
2017-05-15T01:04:13.170Z,0
2017-05-15T01:05:24.186Z,0
2017-05-15T01:06:35.178Z,0
2017-05-15T01:07:46.386Z,0
2017-05-15T01:08:57.399Z,0
2017-05-15T01:10:08.408Z,0
2017-05-15T01:11:19.418Z,0
2017-05-15T01:12:30.674Z,0
2017-05-15T01:13:41.681Z,0
2017-05-15T01:14:52.688Z,0
2017-05-15T01:16:03.706Z,0
2017-05-15T01:17:14.924Z,0
2017-05-15T01:18:25.938Z,0
2017-05-15T01:19:37.165Z,0
2017-05-15T01:20:48.181Z,0
2017-05-15T01:21:59.423Z,0
2017-05-15T01:23:10.482Z,0
2017-05-15T01:24:21.496Z,0
2017-05-15T01:25:32.499Z,0
2017-05-15T01:26:43.704Z,0
2017-05-15T01:27:54.718Z,0
2017-05-15T01:29:05.742Z,0
2017-05-15T01:30:16.748Z,0
2017-05-15T01:31:27.946Z,0
2017-05-15T01:32:39.189Z,0
2017-05-15T01:33:50.440Z,0
2017-05-15T01:35:01.458Z,0
2017-05-15T01:36:12.475Z,0
2017-05-15T01:37:23.495Z,0
2017-05-15T01:38:34.508Z,0
2017-05-15T01:39:45.521Z,0
2017-05-15T01:40:56.527Z,0
2017-05-15T01:42:07.531Z,0
2017-05-15T01:43:18.536Z,0
2017-05-15T01:44:29.589Z,0
2017-05-15T01:45:40.604Z,0
2017-05-15T01:46:51.613Z,0
2017-05-15T01:48:02.630Z,0
2017-05-15T01:49:13.647Z,0
2017-05-15T01:50:24.657Z,0
2017-05-15T01:51:35.660Z,0
2017-05-15T01:52:46.674Z,0
2017-05-15T01:53:57.680Z,0
2017-05-15T01:55:08.732Z,0
2017-05-15T01:56:19.997Z,0
2017-05-15T01:57:31.008Z,0
2017-05-15T01:58:42.018Z,0
2017-05-15T01:59:53.021Z,0
2017-05-15T02:01:04.033Z,0
2017-05-15T02:02:15.235Z,0
2017-05-15T02:03:26.247Z,0
2017-05-15T02:04:37.260Z,0
2017-05-15T02:05:48.316Z,0
2017-05-15T02:06:59.319Z,0
2017-05-15T02:08:10.332Z,0
2017-05-15T02:09:21.555Z,0
2017-05-15T02:10:32.620Z,0
2017-05-15T02:11:43.627Z,0
2017-05-15T02:12:54.625Z,0
2017-05-15T02:14:05.828Z,0
2017-05-15T02:15:17.241Z,0
2017-05-15T02:16:28.257Z,0
2017-05-15T02:17:39.325Z,0
2017-05-15T02:18:50.344Z,0
2017-05-15T02:20:01.351Z,0
2017-05-15T02:21:12.359Z,0
2017-05-15T02:22:23.417Z,0
2017-05-15T02:23:34.434Z,0
2017-05-15T02:24:45.652Z,0
2017-05-15T02:25:56.650Z,0
2017-05-15T02:27:07.717Z,0
2017-05-15T02:28:18.926Z,0
2017-05-15T02:29:29.935Z,0
2017-05-15T02:30:40.935Z,0
2017-05-15T02:31:52.131Z,0
2017-05-15T02:33:03.352Z,0
2017-05-15T02:34:14.375Z,0
2017-05-15T02:35:25.395Z,0
2017-05-15T02:36:36.397Z,0
2017-05-15T02:37:47.448Z,0
2017-05-15T02:38:58.461Z,0
2017-05-15T02:40:09.457Z,0
2017-05-15T02:41:20.666Z,0
2017-05-15T02:42:31.662Z,0
2017-05-15T02:43:42.666Z,0
2017-05-15T02:44:53.685Z,0
2017-05-15T02:46:04.696Z,0
2017-05-15T02:47:15.703Z,0
2017-05-15T02:48:26.757Z,0
2017-05-15T02:49:37.762Z,0
2017-05-15T02:50:48.780Z,0
2017-05-15T02:51:59.783Z,0
2017-05-15T02:53:10.793Z,0
2017-05-15T02:54:21.802Z,0
2017-05-15T02:55:33.004Z,0
2017-05-15T02:56:44.019Z,0
2017-05-15T02:57:55.020Z,4
2017-05-15T02:59:06.086Z,4
2017-05-15T03:00:17.303Z,0
2017-05-15T03:01:28.324Z,4
2017-05-15T03:02:39.327Z,4
2017-05-15T03:03:50.344Z,4
2017-05-15T03:05:01.360Z,4
2017-05-15T03:06:12.575Z,4
2017-05-15T03:07:23.583Z,8
2017-05-15T03:08:34.594Z,8
2017-05-15T03:09:45.653Z,8
2017-05-15T03:10:56.859Z,12
2017-05-15T03:12:08.068Z,16
2017-05-15T03:13:19.072Z,16
2017-05-15T03:14:30.088Z,16
2017-05-15T03:15:41.357Z,20
2017-05-15T03:16:52.563Z,24
2017-05-15T03:18:03.579Z,28
2017-05-15T03:19:14.596Z,32
2017-05-15T03:20:25.596Z,40
2017-05-15T03:21:36.602Z,40
2017-05-15T03:22:47.621Z,48
2017-05-15T03:23:58.628Z,56
2017-05-15T03:25:09.689Z,60
2017-05-15T03:26:20.895Z,72
2017-05-15T03:27:32.167Z,80
2017-05-15T03:28:43.177Z,88
2017-05-15T03:29:54.383Z,100
2017-05-15T03:31:05.394Z,112
2017-05-15T03:32:16.395Z,124
2017-05-15T03:33:27.404Z,136
2017-05-15T03:34:38.620Z,152
2017-05-15T03:35:49.634Z,168
2017-05-15T03:37:00.693Z,188
2017-05-15T03:38:11.901Z,204
2017-05-15T03:39:22.929Z,220
2017-05-15T03:40:34.138Z,236
2017-05-15T03:41:45.149Z,260
2017-05-15T03:42:56.155Z,280
2017-05-15T03:44:07.162Z,304
2017-05-15T03:45:18.176Z,328
2017-05-15T03:46:29.176Z,356
2017-05-15T03:47:40.235Z,384
2017-05-15T03:48:51.257Z,412
2017-05-15T03:50:02.482Z,440
2017-05-15T03:51:13.478Z,480
2017-05-15T03:52:24.482Z,516
2017-05-15T03:53:35.497Z,556
2017-05-15T03:54:46.517Z,592
2017-05-15T03:55:57.539Z,624
2017-05-15T03:57:08.738Z,660
2017-05-15T03:58:20.197Z,700
2017-05-15T03:59:31.222Z,740
2017-05-15T04:00:42.237Z,788
2017-05-15T04:01:53.252Z,836
2017-05-15T04:03:04.248Z,928
2017-05-15T04:04:15.257Z,1124
2017-05-15T04:05:26.275Z,1160
2017-05-15T04:06:37.297Z,1108
2017-05-15T04:07:48.504Z,1192
2017-05-15T04:08:59.561Z,1192
2017-05-15T04:10:10.579Z,1232
2017-05-15T04:11:21.583Z,1320
2017-05-15T04:12:32.581Z,2328
2017-05-15T04:13:43.595Z,2828
2017-05-15T04:14:54.821Z,2268
2017-05-15T04:16:05.822Z,2384
2017-05-15T04:17:16.829Z,3020
2017-05-15T04:18:27.847Z,2264
2017-05-15T04:19:38.906Z,3244
2017-05-15T04:20:49.916Z,5440
2017-05-15T04:22:00.914Z,6832
2017-05-15T04:23:12.138Z,6928
2017-05-15T04:24:23.152Z,6968
2017-05-15T04:25:34.154Z,7180
2017-05-15T04:26:45.156Z,8136
2017-05-15T04:27:56.161Z,11776
2017-05-15T04:29:07.169Z,14016
2017-05-15T04:30:18.177Z,12928
2017-05-15T04:31:29.186Z,10312
2017-05-15T04:32:40.193Z,6372
2017-05-15T04:33:51.413Z,7692
2017-05-15T04:35:02.631Z,7688
2017-05-15T04:36:13.687Z,10832
2017-05-15T04:37:24.699Z,14336
2017-05-15T04:38:35.912Z,15200
2017-05-15T04:39:46.922Z,15808
2017-05-15T04:40:58.134Z,16352
2017-05-15T04:42:09.139Z,17408
2017-05-15T04:43:20.150Z,14624
2017-05-15T04:44:31.393Z,11236
2017-05-15T04:45:42.602Z,16544
2017-05-15T04:46:53.670Z,16032
2017-05-15T04:48:04.696Z,14208
2017-05-15T04:49:15.713Z,10968
2017-05-15T04:50:26.923Z,14016
2017-05-15T04:51:37.934Z,16256
2017-05-15T04:52:49.153Z,17024
2017-05-15T04:54:00.173Z,19968
2017-05-15T04:55:11.390Z,20160
2017-05-15T04:56:22.398Z,21728
2017-05-15T04:57:33.459Z,22272
2017-05-15T04:58:44.477Z,23360
2017-05-15T04:59:55.694Z,21024
2017-05-15T05:01:06.906Z,12008
2017-05-15T05:02:18.118Z,10500
2017-05-15T05:03:29.138Z,12756
2017-05-15T05:04:40.205Z,13516
2017-05-15T05:05:51.212Z,16992
2017-05-15T05:07:02.240Z,18080
2017-05-15T05:08:13.291Z,16288
2017-05-15T05:09:24.300Z,13984
2017-05-15T05:10:35.306Z,12136
2017-05-15T05:11:46.320Z,19072
2017-05-15T05:12:57.329Z,25792
2017-05-15T05:14:08.350Z,30752
2017-05-15T05:15:19.574Z,31456
2017-05-15T05:16:30.582Z,32896
2017-05-15T05:17:41.591Z,33728
2017-05-15T05:18:52.871Z,27264
2017-05-15T05:20:03.891Z,21888
2017-05-15T05:21:14.902Z,18784
2017-05-15T05:22:26.108Z,11908
2017-05-15T05:23:37.318Z,4208
2017-05-15T05:24:48.546Z,4196
2017-05-15T05:25:59.567Z,5232
2017-05-15T05:27:10.584Z,4476
2017-05-15T05:28:21.616Z,3924
2017-05-15T05:29:32.822Z,4344
2017-05-15T05:30:43.826Z,4544
2017-05-15T05:31:54.845Z,4604
2017-05-15T05:33:05.855Z,6632
2017-05-15T05:34:16.876Z,8184
2017-05-15T05:35:27.898Z,6992
2017-05-15T05:36:38.904Z,7704
2017-05-15T05:37:50.117Z,7448
2017-05-15T05:39:01.132Z,9092
2017-05-15T05:40:12.403Z,5508
2017-05-15T05:41:23.408Z,5416
2017-05-15T05:42:34.426Z,5556
2017-05-15T05:43:45.641Z,4840
2017-05-15T05:44:56.658Z,5652
2017-05-15T05:46:07.664Z,7064
2017-05-15T05:47:18.878Z,7624
2017-05-15T05:48:30.110Z,6496
2017-05-15T05:49:41.123Z,6352
2017-05-15T05:50:52.181Z,12156
2017-05-15T05:52:03.205Z,12148
2017-05-15T05:53:14.192Z,8556
2017-05-15T05:54:25.403Z,6384
2017-05-15T05:55:36.424Z,12804
2017-05-15T05:56:47.438Z,28864
2017-05-15T05:57:58.446Z,28512
2017-05-15T05:59:09.463Z,24224
2017-05-15T06:00:20.690Z,32192
2017-05-15T06:01:31.760Z,31872
2017-05-15T06:02:42.813Z,48448
2017-05-15T06:03:53.828Z,51712
2017-05-15T06:05:05.042Z,51328
2017-05-15T06:06:16.307Z,51520
2017-05-15T06:07:27.330Z,51264
2017-05-15T06:08:38.752Z,51136
2017-05-15T06:09:49.760Z,52960
2017-05-15T06:11:00.777Z,52096
2017-05-15T06:12:12.067Z,50048
2017-05-15T06:13:23.290Z,49088
2017-05-15T06:14:34.503Z,50112
2017-05-15T06:15:45.523Z,50240
2017-05-15T06:16:56.547Z,51808
2017-05-15T06:18:07.563Z,54336
2017-05-15T06:19:18.617Z,56448
2017-05-15T06:20:29.842Z,55328
2017-05-15T06:21:40.859Z,52960
2017-05-15T06:22:51.942Z,52544
2017-05-15T06:24:02.974Z,52128
2017-05-15T06:25:14.008Z,52288
2017-05-15T06:26:25.042Z,53120
2017-05-15T06:27:36.263Z,53984
2017-05-15T06:28:47.295Z,52800
2017-05-15T06:29:58.317Z,53440
2017-05-15T06:31:09.735Z,55168
2017-05-15T06:32:20.751Z,55104
2017-05-15T06:33:31.770Z,54272
2017-05-15T06:34:42.800Z,58688
2017-05-15T06:35:53.810Z,58112
2017-05-15T06:37:05.037Z,57632
2017-05-15T06:38:16.057Z,59584
2017-05-15T06:39:27.075Z,61152
2017-05-15T06:40:38.155Z,62464
2017-05-15T06:41:49.385Z,64064
2017-05-15T06:43:00.624Z,63552
2017-05-15T06:44:11.856Z,62176
2017-05-15T06:45:22.905Z,61920
2017-05-15T06:46:33.943Z,63104
2017-05-15T06:47:44.965Z,64416
2017-05-15T06:48:55.990Z,61536
2017-05-15T06:50:07.069Z,60352
2017-05-15T06:51:18.081Z,62880
2017-05-15T06:52:29.099Z,64000
2017-05-15T06:53:40.114Z,64960
2017-05-15T06:54:51.355Z,63360
2017-05-15T06:56:02.587Z,63072
2017-05-15T06:57:13.623Z,63552
2017-05-15T06:58:24.688Z,66496
2017-05-15T06:59:35.716Z,66272
2017-05-15T07:00:46.793Z,66080
2017-05-15T07:01:57.819Z,66912
2017-05-15T07:03:08.837Z,68000
2017-05-15T07:04:20.055Z,67008
2017-05-15T07:05:31.087Z,65216
2017-05-15T07:06:42.122Z,63904
2017-05-15T07:07:53.355Z,63840
2017-05-15T07:09:04.385Z,64064
2017-05-15T07:10:15.415Z,63264
2017-05-15T07:11:26.487Z,65152
2017-05-15T07:12:37.524Z,65824
2017-05-15T07:13:48.562Z,65952
2017-05-15T07:14:59.585Z,66976
2017-05-15T07:16:10.591Z,66336
2017-05-15T07:17:21.618Z,63680
2017-05-15T07:18:32.665Z,64032
2017-05-15T07:19:43.686Z,64256
2017-05-15T07:20:54.704Z,64448
2017-05-15T07:22:05.791Z,65312
2017-05-15T07:23:16.814Z,64384
2017-05-15T07:24:27.847Z,64960
2017-05-15T07:25:39.072Z,64576
2017-05-15T07:26:50.107Z,62816
2017-05-15T07:28:01.126Z,63136
2017-05-15T07:29:12.145Z,65760
2017-05-15T07:30:23.174Z,65984
2017-05-15T07:31:34.205Z,66048
2017-05-15T07:32:45.484Z,66304
2017-05-15T07:33:56.517Z,67872
2017-05-15T07:35:07.552Z,68128
2017-05-15T07:36:18.588Z,67392
2017-05-15T07:37:29.617Z,70976
2017-05-15T07:38:40.858Z,71456
2017-05-15T07:39:52.083Z,70592
2017-05-15T07:41:03.106Z,70272
2017-05-15T07:42:14.138Z,69728
2017-05-15T07:43:25.169Z,68480
2017-05-15T07:44:36.250Z,65568
2017-05-15T07:45:47.283Z,63680
2017-05-15T07:46:58.331Z,66272
2017-05-15T07:48:09.353Z,68896
2017-05-15T07:49:20.381Z,72160
2017-05-15T07:50:31.403Z,72448
2017-05-15T07:51:42.633Z,70944
2017-05-15T07:52:53.664Z,70848
2017-05-15T07:54:04.745Z,72960
2017-05-15T07:55:15.778Z,72288
2017-05-15T07:56:26.801Z,71200
2017-05-15T07:57:37.821Z,66656
2017-05-15T07:58:48.910Z,63936
2017-05-15T08:00:00.330Z,67392
2017-05-15T08:01:11.361Z,71648
2017-05-15T08:02:22.397Z,70880
2017-05-15T08:03:33.435Z,69344
2017-05-15T08:04:44.514Z,67456
2017-05-15T08:05:55.543Z,68128
2017-05-15T08:07:06.582Z,67744
2017-05-15T08:08:17.607Z,67520
2017-05-15T08:09:28.841Z,67232
2017-05-15T08:10:39.866Z,65152
2017-05-15T08:11:50.902Z,63168
2017-05-15T08:13:01.982Z,63904
2017-05-15T08:14:13.009Z,65696
2017-05-15T08:15:24.294Z,66816
2017-05-15T08:16:35.359Z,66240
2017-05-15T08:17:46.391Z,64224
2017-05-15T08:18:57.636Z,64032
2017-05-15T08:20:08.663Z,63808
2017-05-15T08:21:19.693Z,64000
2017-05-15T08:22:30.723Z,64928
2017-05-15T08:23:41.950Z,65696
2017-05-15T08:24:53.196Z,65472
2017-05-15T08:26:04.279Z,64576
2017-05-15T08:27:15.306Z,62144
2017-05-15T08:28:26.343Z,61888
2017-05-15T08:29:37.374Z,65600
2017-05-15T08:30:48.455Z,69888
2017-05-15T08:31:59.534Z,68288
2017-05-15T08:33:10.763Z,68032
2017-05-15T08:34:21.798Z,68800
2017-05-15T08:35:32.843Z,68000
2017-05-15T08:36:43.875Z,66720
2017-05-15T08:37:54.902Z,65216
2017-05-15T08:39:05.933Z,63392
2017-05-15T08:40:16.962Z,61344
2017-05-15T08:41:27.980Z,59904
2017-05-15T08:42:39.018Z,60128
2017-05-15T08:43:50.250Z,62272
2017-05-15T08:45:01.279Z,64256
2017-05-15T08:46:12.294Z,65600
2017-05-15T08:47:23.324Z,65312
2017-05-15T08:48:34.353Z,65408
2017-05-15T08:49:45.424Z,65440
2017-05-15T08:50:56.444Z,63968
2017-05-15T08:52:07.480Z,64480
2017-05-15T08:53:18.519Z,63136
2017-05-15T08:54:29.576Z,60416
2017-05-15T08:55:40.605Z,56832
2017-05-15T08:56:51.642Z,53024
2017-05-15T08:58:02.688Z,55968
2017-05-15T08:59:13.766Z,57600
2017-05-15T09:00:24.799Z,60096
2017-05-15T09:01:35.829Z,58784
2017-05-15T09:02:46.864Z,57280
2017-05-15T09:03:57.901Z,56928
2017-05-15T09:05:08.921Z,57024
2017-05-15T09:06:19.939Z,58208
2017-05-15T09:07:30.965Z,58784
2017-05-15T09:08:41.991Z,55360
2017-05-15T09:09:53.077Z,51168
2017-05-15T09:11:04.105Z,49728
2017-05-15T09:12:15.174Z,47328
2017-05-15T09:13:26.202Z,54016
2017-05-15T09:14:37.248Z,55456
2017-05-15T09:15:48.473Z,54240
2017-05-15T09:16:59.496Z,44064
2017-05-15T09:18:10.531Z,41248
2017-05-15T09:19:21.560Z,57088
2017-05-15T09:20:32.797Z,50272
2017-05-15T09:21:43.825Z,53280
2017-05-15T09:22:54.864Z,54048
2017-05-15T09:24:05.900Z,51232
2017-05-15T09:25:17.183Z,52480
2017-05-15T09:26:28.227Z,47648
2017-05-15T09:27:39.471Z,53664
2017-05-15T09:28:50.688Z,51680
2017-05-15T09:30:01.720Z,47552
2017-05-15T09:31:12.752Z,53728
2017-05-15T09:32:23.784Z,49504
2017-05-15T09:33:35.012Z,25792
2017-05-15T09:34:46.032Z,48448
2017-05-15T09:35:57.124Z,47168
2017-05-15T09:37:08.153Z,45824
2017-05-15T09:38:19.236Z,41376
2017-05-15T09:39:30.473Z,43424
2017-05-15T09:40:41.757Z,47040
2017-05-15T09:41:52.796Z,48704
2017-05-15T09:43:03.827Z,48512
2017-05-15T09:44:15.063Z,48608
2017-05-15T09:45:26.291Z,49824
2017-05-15T09:46:37.521Z,43456
2017-05-15T09:47:48.765Z,45920
2017-05-15T09:48:59.791Z,40512
2017-05-15T09:50:10.822Z,46912
2017-05-15T09:51:21.849Z,47264
2017-05-15T09:52:32.878Z,48160
2017-05-15T09:53:43.956Z,53728
2017-05-15T09:54:54.991Z,57216
2017-05-15T09:56:06.019Z,54080
2017-05-15T09:57:17.261Z,55392
2017-05-15T09:58:28.284Z,57824
2017-05-15T09:59:39.315Z,53184
2017-05-15T10:00:50.345Z,14488
2017-05-15T10:02:01.417Z,47584
2017-05-15T10:03:12.693Z,56320
2017-05-15T10:04:23.733Z,18048
2017-05-15T10:05:34.757Z,23392
2017-05-15T10:06:45.991Z,23552
2017-05-15T10:07:57.215Z,22464
2017-05-15T10:09:08.299Z,23072
2017-05-15T10:10:19.515Z,23904
2017-05-15T10:11:30.745Z,24416
2017-05-15T10:12:41.767Z,24800
2017-05-15T10:13:52.857Z,25056
2017-05-15T10:15:03.892Z,24256
2017-05-15T10:16:14.928Z,24160
2017-05-15T10:17:26.163Z,25792
2017-05-15T10:18:37.379Z,26336
2017-05-15T10:19:48.414Z,26272
2017-05-15T10:20:59.454Z,28832
2017-05-15T10:22:10.473Z,31328
2017-05-15T10:23:21.752Z,34368
2017-05-15T10:24:33.025Z,37536
2017-05-15T10:25:44.054Z,34656
2017-05-15T10:26:55.280Z,29344
2017-05-15T10:28:06.324Z,34176
2017-05-15T10:29:17.361Z,18368
2017-05-15T10:30:28.382Z,9916
2017-05-15T10:31:39.419Z,9632
2017-05-15T10:32:50.453Z,40000
2017-05-15T10:34:01.492Z,38048
2017-05-15T10:35:12.564Z,41408
2017-05-15T10:36:23.598Z,41760
2017-05-15T10:37:34.621Z,43168
2017-05-15T10:38:45.868Z,43840
2017-05-15T10:39:56.894Z,41376
2017-05-15T10:41:07.970Z,37760
2017-05-15T10:42:19.002Z,37824
2017-05-15T10:43:30.236Z,37504
2017-05-15T10:44:41.271Z,37728
2017-05-15T10:45:52.495Z,38336
2017-05-15T10:47:03.523Z,17760
2017-05-15T10:48:14.558Z,32512
2017-05-15T10:49:25.646Z,25664
2017-05-15T10:50:36.869Z,10556
2017-05-15T10:51:47.909Z,9116
2017-05-15T10:52:59.131Z,9280
2017-05-15T10:54:10.173Z,10036
2017-05-15T10:55:21.199Z,24320
2017-05-15T10:56:32.230Z,36096
2017-05-15T10:57:43.296Z,36000
2017-05-15T10:58:54.322Z,35840
2017-05-15T11:00:05.352Z,35136
2017-05-15T11:01:16.365Z,35360
2017-05-15T11:02:27.590Z,35936
2017-05-15T11:03:38.623Z,36128
2017-05-15T11:04:49.655Z,34880
2017-05-15T11:06:00.881Z,35008
2017-05-15T11:07:11.919Z,33216
2017-05-15T11:08:22.998Z,33216
2017-05-15T11:09:34.014Z,31168
2017-05-15T11:10:45.037Z,28704
2017-05-15T11:11:56.057Z,28800
2017-05-15T11:13:07.304Z,28416
2017-05-15T11:14:18.528Z,28320
2017-05-15T11:15:29.563Z,29056
2017-05-15T11:16:40.597Z,29280
2017-05-15T11:17:51.640Z,28320
2017-05-15T11:19:02.718Z,27008
2017-05-15T11:20:13.741Z,25824
2017-05-15T11:21:24.758Z,24992
2017-05-15T11:22:35.978Z,25440
2017-05-15T11:23:47.200Z,24640
2017-05-15T11:24:58.236Z,23616
2017-05-15T11:26:09.302Z,23488
2017-05-15T11:27:20.328Z,23136
2017-05-15T11:28:31.361Z,22016
2017-05-15T11:29:42.430Z,21472
2017-05-15T11:30:53.449Z,21760
2017-05-15T11:32:04.470Z,21184
2017-05-15T11:33:15.502Z,20640
2017-05-15T11:34:26.525Z,20192
2017-05-15T11:35:37.539Z,19616
2017-05-15T11:36:48.564Z,19296
2017-05-15T11:37:59.591Z,18944
2017-05-15T11:39:10.614Z,18176
2017-05-15T11:40:21.636Z,17856
2017-05-15T11:41:32.669Z,18112
2017-05-15T11:42:43.695Z,18048
2017-05-15T11:43:54.728Z,17152
2017-05-15T11:45:05.769Z,16416
2017-05-15T11:46:17.038Z,15648
2017-05-15T11:47:28.282Z,15008
2017-05-15T11:48:39.314Z,14432
2017-05-15T11:49:50.342Z,14560
2017-05-15T11:51:01.562Z,14560
2017-05-15T11:52:12.592Z,14336
2017-05-15T11:53:24.050Z,14048
2017-05-15T11:54:35.286Z,13984
2017-05-15T11:55:46.514Z,14048
2017-05-15T11:56:57.746Z,13856
2017-05-15T11:58:08.769Z,14048
2017-05-15T11:59:19.788Z,13984
2017-05-15T12:00:30.866Z,13440
2017-05-15T12:01:41.895Z,13120
2017-05-15T12:02:52.920Z,12896
2017-05-15T12:04:04.142Z,12028
2017-05-15T12:05:15.171Z,11464
2017-05-15T12:06:26.238Z,11280
2017-05-15T12:07:37.254Z,11396
2017-05-15T12:08:48.466Z,11472
2017-05-15T12:09:59.531Z,11260
2017-05-15T12:11:10.545Z,11008
2017-05-15T12:12:21.617Z,11000
2017-05-15T12:13:32.646Z,11180
2017-05-15T12:14:43.870Z,11004
2017-05-15T12:15:54.894Z,11008
2017-05-15T12:17:05.906Z,10876
2017-05-15T12:18:16.990Z,11128
2017-05-15T12:19:28.011Z,11196
2017-05-15T12:20:39.039Z,11336
2017-05-15T12:21:50.046Z,11404
2017-05-15T12:23:01.291Z,11336
2017-05-15T12:24:12.356Z,11392
2017-05-15T12:25:23.377Z,11380
2017-05-15T12:26:34.390Z,11208
2017-05-15T12:27:45.609Z,11416
2017-05-15T12:28:56.826Z,11508
2017-05-15T12:30:07.905Z,11364
2017-05-15T12:31:19.136Z,11008
2017-05-15T12:32:30.163Z,10872
2017-05-15T12:33:41.381Z,10844
2017-05-15T12:34:52.616Z,10668
2017-05-15T12:36:03.895Z,10500
2017-05-15T12:37:14.911Z,10404
2017-05-15T12:38:25.930Z,10420
2017-05-15T12:39:36.954Z,10500
2017-05-15T12:40:48.184Z,8828
2017-05-15T12:41:59.254Z,8944
2017-05-15T12:43:10.283Z,6608
2017-05-15T12:44:21.691Z,10208
2017-05-15T12:45:32.712Z,10324
2017-05-15T12:46:43.745Z,10600
2017-05-15T12:47:54.827Z,10700
2017-05-15T12:49:05.844Z,10492
2017-05-15T12:50:16.863Z,10352
2017-05-15T12:51:27.908Z,10088
2017-05-15T12:52:39.131Z,10020
2017-05-15T12:53:50.411Z,9888
2017-05-15T12:55:01.439Z,9700
2017-05-15T12:56:12.472Z,9564
2017-05-15T12:57:23.688Z,9508
2017-05-15T12:58:34.714Z,7408
2017-05-15T12:59:45.780Z,8256
2017-05-15T13:00:56.797Z,7036
2017-05-15T13:02:07.838Z,6744
2017-05-15T13:03:18.867Z,7120
2017-05-15T13:04:29.891Z,7092
2017-05-15T13:05:40.955Z,6768
2017-05-15T13:06:51.979Z,7840
2017-05-15T13:08:03.001Z,8000
2017-05-15T13:09:14.018Z,7764
2017-05-15T13:10:25.039Z,7384
2017-05-15T13:11:36.131Z,5992
2017-05-15T13:12:47.753Z,5980
2017-05-15T13:13:58.981Z,6676
2017-05-15T13:15:10.001Z,6832
2017-05-15T13:16:21.018Z,5948
2017-05-15T13:17:32.082Z,5796
2017-05-15T13:18:43.112Z,6328
2017-05-15T13:19:54.124Z,9180
2017-05-15T13:21:05.145Z,9628
2017-05-15T13:22:16.165Z,9604
2017-05-15T13:23:27.236Z,9376
2017-05-15T13:24:38.253Z,9152
2017-05-15T13:25:49.265Z,8932
2017-05-15T13:27:00.288Z,8624
2017-05-15T13:28:11.311Z,8604
2017-05-15T13:29:22.575Z,8320
2017-05-15T13:30:33.596Z,5532
2017-05-15T13:31:44.618Z,5080
2017-05-15T13:32:55.646Z,4964
2017-05-15T13:34:06.664Z,6948
2017-05-15T13:35:17.934Z,7252
2017-05-15T13:36:29.159Z,8780
2017-05-15T13:37:40.182Z,5236
2017-05-15T13:38:51.205Z,5076
2017-05-15T13:40:02.225Z,5132
2017-05-15T13:41:13.305Z,6684
2017-05-15T13:42:24.315Z,8840
2017-05-15T13:43:35.319Z,8556
2017-05-15T13:44:46.344Z,5608
2017-05-15T13:45:57.357Z,5644
2017-05-15T13:47:08.425Z,6656
2017-05-15T13:48:19.459Z,8816
2017-05-15T13:49:30.679Z,8700
2017-05-15T13:50:41.692Z,8540
2017-05-15T13:51:52.910Z,8320
2017-05-15T13:53:03.992Z,8136
2017-05-15T13:54:15.016Z,8084
2017-05-15T13:55:26.086Z,8040
2017-05-15T13:56:37.115Z,7928
2017-05-15T13:57:48.127Z,7860
2017-05-15T13:58:59.201Z,7872
2017-05-15T14:00:10.427Z,7756
2017-05-15T14:01:21.455Z,7668
2017-05-15T14:02:32.680Z,7632
2017-05-15T14:03:43.692Z,7616
2017-05-15T14:04:54.787Z,8008
2017-05-15T14:06:05.810Z,9484
2017-05-15T14:07:16.829Z,12064
2017-05-15T14:08:28.252Z,11824
2017-05-15T14:09:39.273Z,10596
2017-05-15T14:10:50.295Z,10852
2017-05-15T14:12:01.540Z,10844
2017-05-15T14:13:12.564Z,10764
2017-05-15T14:14:23.584Z,10320
2017-05-15T14:15:34.639Z,10440
2017-05-15T14:16:45.658Z,10456
2017-05-15T14:17:56.686Z,10456
2017-05-15T14:19:07.913Z,4252
2017-05-15T14:20:18.929Z,4352
2017-05-15T14:21:30.216Z,9048
2017-05-15T14:22:41.245Z,4428
2017-05-15T14:23:52.256Z,6292
2017-05-15T14:25:03.279Z,11012
2017-05-15T14:26:14.302Z,11284
2017-05-15T14:27:25.381Z,10828
2017-05-15T14:28:36.393Z,10688
2017-05-15T14:29:47.419Z,10060
2017-05-15T14:30:58.434Z,8332
2017-05-15T14:32:09.442Z,7012
2017-05-15T14:33:20.521Z,6252
2017-05-15T14:34:31.544Z,5980
2017-05-15T14:35:42.556Z,5248
2017-05-15T14:36:53.580Z,3916
2017-05-15T14:38:04.599Z,5460
2017-05-15T14:39:15.667Z,5664
2017-05-15T14:40:26.686Z,5548
2017-05-15T14:41:37.701Z,5476
2017-05-15T14:42:48.708Z,5484
2017-05-15T14:43:59.720Z,5436
2017-05-15T14:45:10.787Z,5360
2017-05-15T14:46:21.800Z,5344
2017-05-15T14:47:32.815Z,5352
2017-05-15T14:48:43.837Z,5304
2017-05-15T14:49:54.853Z,5344
2017-05-15T14:51:05.876Z,5272
2017-05-15T14:52:16.944Z,5264
2017-05-15T14:53:28.161Z,5208
2017-05-15T14:54:39.177Z,5104
2017-05-15T14:55:50.246Z,5024
2017-05-15T14:57:01.250Z,4128
2017-05-15T14:58:12.259Z,4804
2017-05-15T14:59:23.491Z,4876
2017-05-15T15:00:34.710Z,4744
2017-05-15T15:01:45.782Z,4180
2017-05-15T15:02:56.822Z,4640
2017-05-15T15:04:08.047Z,4812
2017-05-15T15:05:19.057Z,4908
2017-05-15T15:06:30.074Z,4968
2017-05-15T15:07:41.182Z,4968
2017-05-15T15:08:52.237Z,4956
2017-05-15T15:10:03.267Z,4880
2017-05-15T15:11:14.281Z,4864
2017-05-15T15:12:25.288Z,4868
2017-05-15T15:13:36.307Z,4900
2017-05-15T15:14:47.719Z,4956
2017-05-15T15:15:58.922Z,5052
2017-05-15T15:17:09.967Z,5140
2017-05-15T15:18:21.037Z,5188
2017-05-15T15:19:32.250Z,5284
2017-05-15T15:20:43.272Z,5260
2017-05-15T15:21:54.497Z,5184
2017-05-15T15:23:05.508Z,5172
2017-05-15T15:24:16.574Z,5088
2017-05-15T15:25:27.652Z,4820
2017-05-15T15:26:38.676Z,4560
2017-05-15T15:27:49.696Z,4388
2017-05-15T15:29:00.913Z,4236
2017-05-15T15:30:11.935Z,4160
2017-05-15T15:31:22.950Z,4104
2017-05-15T15:32:34.164Z,4088
2017-05-15T15:33:45.188Z,4020
2017-05-15T15:34:56.420Z,3968
2017-05-15T15:36:07.688Z,3940
2017-05-15T15:37:18.920Z,3916
2017-05-15T15:38:30.136Z,3972
2017-05-15T15:39:41.158Z,3944
2017-05-15T15:40:52.173Z,3920
2017-05-15T15:42:03.251Z,3896
2017-05-15T15:43:14.281Z,3828
2017-05-15T15:44:25.306Z,3856
2017-05-15T15:45:36.326Z,3872
2017-05-15T15:46:47.402Z,3908
2017-05-15T15:47:58.680Z,3908
2017-05-15T15:49:09.704Z,3896
2017-05-15T15:50:20.776Z,3872
2017-05-15T15:51:31.801Z,3884